49A

Gilmer County Airport

Ellijay, Georgia, USA
METAR K49A 110155Z AUTO 36003KT 7SM BKN095 BKN120 03/02 A3019 RMK AO2 T00300021
Observed Flight Rules
Dec-11 @ 01:55 UTC (30 minutes ago) Visual Flight Rules
Wind Visibility Clouds
360° at 3 knots 7 miles
  • Broken at 9,500' AGL
  • Broken at 12,000' AGL
Temperatures Readings
Current 3°C / 37°F
Dewpoint 2°C / 36°F
Humidity 93%
Altimeter 30.19" Hg
Pressure 1022 hPa
Elevation 453
METAR K49A 110155Z AUTO 36003KT 7SM BKN095 BKN120 03/02 A3019 RMK AO2 T00300021
Observed Flight Rules
Dec-11 @ 01:55 UTC
(30 minutes ago)
VFR
Wind Visibility
360° at 3 knots 7 miles
Clouds
  • Broken at 9,500' AGL
  • Broken at 12,000' AGL
Temperature Dewpoint
3°C / 37°F 2°C / 36°F
Humidity Altimeter Pressure
93% 30.19" Hg 1022 hPa